Time;durP1;ratioP1;P1;durP2;ratioP2;P2;SDS_P1;SDS_P2;PMS_P1;PMS_P2;Temp;Humidity;BMP_temperature;BMP_pressure;BME280_temperature;BME280_humidity;BME280_pressure;Samples;Min_cycle;Max_cycle;Signal;HPM_P1;HPM_P2
2021/01/14 00:02:13;;;;;;;6.30;2.00;;;4.40;99.90;;;8.88;85.64;101667.13;1689506;75;24579;-82
2021/01/14 00:04:35;;;;;;;6.14;1.78;;;4.40;99.90;;;8.69;83.41;101659.16;1691259;75;24421;-80
2021/01/14 00:06:58;;;;;;;6.77;1.97;;;4.40;99.90;;;8.86;84.00;101662.28;1694320;75;24440;-81
2021/01/14 00:09:20;;;;;;;5.94;1.60;;;4.40;99.90;;;8.86;83.17;101659.69;1687899;75;24829;-82
2021/01/14 00:11:38;;;;;;;6.77;2.17;;;4.40;99.90;;;8.88;83.98;101658.03;1692429;75;24513;-82
2021/01/14 00:13:54;;;;;;;10.16;2.00;;;4.40;99.90;;;8.82;83.52;101654.81;1693732;75;24513;-82
2021/01/14 00:16:14;;;;;;;8.16;2.27;;;4.40;99.90;;;8.71;82.75;101659.23;1690273;74;24523;-83
2021/01/14 00:18:32;;;;;;;7.79;1.99;;;4.40;99.90;;;8.71;82.76;101662.69;1693408;75;25219;-84
2021/01/14 00:21:08;;;;;;;8.02;2.25;;;4.40;99.90;;;8.74;82.98;101656.30;1690242;74;26286;-81
2021/01/14 00:23:27;;;;;;;6.93;1.79;;;4.40;99.90;;;8.75;82.80;101666.27;1688779;74;25103;-81
2021/01/14 00:25:45;;;;;;;7.07;1.79;;;4.30;99.90;;;8.72;81.44;101657.98;1692246;75;24446;-81
2021/01/14 00:28:06;;;;;;;6.65;1.93;;;4.30;99.90;;;8.69;80.83;101663.05;1686614;75;24985;-81
2021/01/14 00:30:32;;;;;;;7.53;1.97;;;4.30;99.90;;;8.64;79.94;101663.77;1691755;74;24437;-83
2021/01/14 00:32:49;;;;;;;8.64;1.82;;;4.30;99.90;;;8.66;79.70;101664.70;1691596;74;24575;-82
2021/01/14 00:35:14;;;;;;;5.87;1.86;;;4.30;99.90;;;8.61;78.10;101664.97;1682191;75;24499;-81
2021/01/14 00:40:07;;;;;;;5.96;1.67;;;4.20;99.90;;;8.62;73.37;101670.20;1682014;75;24544;-80
2021/01/14 00:42:24;;;;;;;3.85;1.69;;;4.20;99.90;;;8.59;71.59;101662.33;1683814;75;24403;-82
2021/01/14 00:44:42;;;;;;;4.50;1.82;;;4.20;99.90;;;8.53;69.25;101663.84;1681272;75;24520;-83
2021/01/14 00:47:06;;;;;;;8.43;1.78;;;4.10;99.90;;;8.50;68.75;101667.64;1694934;75;24543;-77
2021/01/14 00:49:25;;;;;;;5.93;1.65;;;4.10;99.90;;;8.51;68.84;101670.28;1691551;75;24561;-80
2021/01/14 00:51:44;;;;;;;6.13;1.68;;;4.10;99.90;;;8.51;68.98;101668.98;1678736;75;24448;-82
2021/01/14 00:54:01;;;;;;;5.39;1.57;;;4.10;99.90;;;8.41;68.85;101663.02;1696256;75;24443;-80
2021/01/14 00:56:19;;;;;;;6.95;2.26;;;4.00;99.90;;;8.30;68.63;101663.09;1700821;75;24564;-80
2021/01/14 00:58:38;;;;;;;5.99;1.70;;;3.90;99.90;;;8.21;68.84;101664.47;1692506;75;24934;-81
2021/01/14 01:01:00;;;;;;;7.80;1.98;;;3.90;99.90;;;8.27;69.16;101667.30;1697362;75;24894;-81
2021/01/14 01:03:20;;;;;;;5.07;1.65;;;3.80;99.90;;;8.26;69.21;101669.44;1692464;75;24485;-82
2021/01/14 01:05:36;;;;;;;8.11;1.58;;;3.70;99.90;;;8.22;69.18;101672.30;1702568;75;24437;-82
2021/01/14 01:07:59;;;;;;;10.91;2.42;;;3.60;99.90;;;8.12;68.87;101670.66;1699075;74;24975;-81
2021/01/14 01:10:23;;;;;;;6.12;1.58;;;3.60;99.90;;;8.07;67.92;101676.10;1703087;75;24935;-81
2021/01/14 01:12:42;;;;;;;7.38;1.89;;;3.50;99.90;;;8.09;68.20;101669.27;1691271;75;24453;-82
2021/01/14 01:15:02;;;;;;;7.60;1.60;;;3.40;99.90;;;8.01;68.02;101673.31;1697572;75;24481;-81
2021/01/14 01:17:27;;;;;;;4.64;1.78;;;3.40;99.90;;;7.96;67.38;101675.75;1705493;74;25084;-82
2021/01/14 01:19:45;;;;;;;6.47;1.78;;;3.30;99.90;;;7.96;67.18;101672.27;1688920;75;24453;-81
2021/01/14 01:22:01;;;;;;;5.83;1.72;;;3.30;99.90;;;8.01;67.16;101664.23;1702893;75;24494;-81
2021/01/14 01:24:20;;;;;;;5.27;1.72;;;3.30;99.90;;;7.99;67.22;101671.07;1692233;75;24495;-79
2021/01/14 01:26:40;;;;;;;7.71;2.37;;;3.20;99.90;;;7.93;67.56;101678.24;1678064;76;25218;-80
2021/01/14 01:28:57;;;;;;;3.79;1.59;;;3.20;99.90;;;7.92;67.79;101679.48;1710160;74;24885;-83
2021/01/14 01:31:17;;;;;;;7.66;1.89;;;3.20;99.90;;;7.86;68.29;101684.03;1701635;75;24469;-81
2021/01/14 01:33:39;;;;;;;6.50;1.55;;;3.10;99.90;;;7.88;68.53;101684.09;1705912;75;24500;-82
2021/01/14 01:35:57;;;;;;;6.44;1.67;;;3.10;99.90;;;7.91;68.42;101685.08;1700499;75;24526;-80
2021/01/14 01:38:14;;;;;;;6.83;1.84;;;3.10;99.90;;;7.86;68.50;101690.92;1694447;75;24533;-80
2021/01/14 01:40:34;;;;;;;4.29;1.42;;;3.00;99.90;;;7.88;68.66;101686.67;1701636;75;24394;-81
2021/01/14 01:42:57;;;;;;;6.44;1.79;;;3.00;99.90;;;7.84;68.64;101692.59;1710022;75;24554;-80
2021/01/14 01:45:20;;;;;;;5.22;1.84;;;3.00;99.90;;;7.96;68.84;101694.31;1701992;73;25224;-79
2021/01/14 01:47:42;;;;;;;8.44;1.64;;;3.00;99.90;;;7.98;68.65;101691.36;1694412;74;25228;-81
2021/01/14 01:50:06;;;;;;;7.40;1.95;;;3.00;99.90;;;7.95;68.45;101692.12;1695954;75;24515;-80
2021/01/14 01:52:25;;;;;;;4.48;1.49;;;3.00;99.90;;;7.99;68.65;101686.63;1708906;74;24480;-82
2021/01/14 01:54:43;;;;;;;5.16;1.63;;;3.00;99.90;;;7.97;68.54;101695.66;1684510;75;24510;-81
2021/01/14 01:57:05;;;;;;;6.02;2.00;;;3.00;99.90;;;7.96;68.55;101693.02;1685634;75;24529;-81
2021/01/14 01:59:26;;;;;;;4.06;1.66;;;3.00;99.90;;;8.01;69.15;101698.84;1688762;75;25235;-79
2021/01/14 02:01:44;;;;;;;6.19;1.85;;;3.00;99.90;;;7.98;68.87;101692.66;1694703;75;24453;-82
2021/01/14 02:04:01;;;;;;;5.44;1.52;;;3.10;99.90;;;8.00;69.16;101701.38;1692541;75;24505;-81
2021/01/14 02:06:19;;;;;;;6.01;1.83;;;3.10;99.90;;;7.98;69.31;101705.22;1691140;75;24508;-79
2021/01/14 02:08:46;;;;;;;5.92;1.96;;;3.10;99.90;;;7.95;69.18;101708.97;1671614;75;24521;-81
2021/01/14 02:11:10;;;;;;;4.16;1.55;;;3.10;99.90;;;7.82;68.78;101714.98;1690644;75;24579;-80
2021/01/14 02:13:36;;;;;;;5.73;1.73;;;3.10;99.90;;;7.87;69.02;101716.04;1689886;75;24525;-80
2021/01/14 02:15:54;;;;;;;7.97;2.20;;;3.10;99.90;;;7.92;69.02;101724.43;1685950;75;24517;-82
2021/01/14 02:18:13;;;;;;;6.68;1.79;;;3.10;99.90;;;7.93;69.07;101728.81;1699465;75;24511;-80
2021/01/14 02:20:33;;;;;;;10.14;2.09;;;3.10;99.90;;;7.84;68.65;101726.30;1688994;74;24585;-82
2021/01/14 02:22:59;;;;;;;8.17;1.76;;;3.10;99.90;;;7.85;68.59;101736.73;1693284;74;24437;-81
2021/01/14 02:25:20;;;;;;;9.95;2.20;;;3.10;99.90;;;7.80;68.78;101742.16;1689050;75;24443;-80
2021/01/14 02:27:41;;;;;;;5.80;1.86;;;3.10;99.90;;;7.82;68.62;101748.29;1688037;74;24556;-82
2021/01/14 02:29:59;;;;;;;4.72;1.66;;;3.10;99.90;;;7.82;68.42;101746.10;1688097;75;24512;-81
2021/01/14 02:32:19;;;;;;;5.10;1.76;;;3.10;99.90;;;7.80;68.56;101749.94;1681157;74;24455;-81
2021/01/14 02:34:41;;;;;;;7.84;2.09;;;3.00;99.90;;;7.73;68.14;101747.94;1683087;75;24518;-82
2021/01/14 02:37:00;;;;;;;3.69;1.53;;;3.00;99.90;;;7.73;68.21;101738.45;1694031;74;25249;-81
2021/01/14 02:39:19;;;;;;;6.25;1.69;;;3.00;99.90;;;7.71;67.65;101742.70;1689629;74;24517;-81
2021/01/14 02:41:36;;;;;;;8.06;2.10;;;3.00;99.90;;;7.71;67.75;101748.31;1695852;74;24425;-82
2021/01/14 02:43:53;;;;;;;5.36;1.63;;;3.00;99.90;;;7.70;67.67;101743.53;1687583;75;24939;-80
2021/01/14 02:46:11;;;;;;;5.94;1.65;;;3.00;99.90;;;7.65;66.52;101751.55;1687143;75;24512;-82
2021/01/14 02:48:36;;;;;;;6.52;1.70;;;3.00;99.90;;;7.61;65.88;101749.69;1685363;75;24426;-80
2021/01/14 02:50:57;;;;;;;4.38;1.47;;;3.00;99.90;;;7.61;65.94;101753.98;1693335;74;24480;-81
2021/01/14 02:53:20;;;;;;;5.47;1.49;;;3.10;99.90;;;7.65;65.49;101755.44;1694022;74;24518;-79
2021/01/14 02:55:39;;;;;;;5.65;1.83;;;3.10;99.90;;;7.69;65.33;101759.03;1691085;73;24548;-80
2021/01/14 02:57:59;;;;;;;5.61;1.77;;;3.10;99.90;;;7.73;65.33;101759.20;1700424;75;25104;-81
2021/01/14 03:00:23;;;;;;;5.30;1.64;;;3.10;99.90;;;7.64;64.94;101759.27;1676466;76;25199;-80
2021/01/14 03:02:40;;;;;;;5.69;1.52;;;3.10;99.90;;;7.66;64.93;101764.11;1680325;74;24501;-80
2021/01/14 03:04:57;;;;;;;6.78;2.12;;;3.10;99.90;;;7.63;65.04;101760.97;1686710;75;24520;-82
2021/01/14 03:07:16;;;;;;;3.85;1.70;;;3.10;99.90;;;7.63;64.76;101771.78;1684130;75;24449;-81
2021/01/14 03:09:37;;;;;;;4.90;1.49;;;3.10;99.90;;;7.61;64.31;101767.83;1688924;75;24528;-80
2021/01/14 03:11:55;;;;;;;4.82;1.67;;;3.10;99.90;;;7.63;64.41;101768.75;1693563;75;24398;-81
2021/01/14 03:14:12;;;;;;;5.73;1.62;;;3.10;99.90;;;7.54;63.87;101771.01;1685629;75;24485;-79
2021/01/14 03:16:30;;;;;;;5.47;2.04;;;3.10;99.90;;;7.53;63.77;101778.33;1690911;75;24457;-81
2021/01/14 03:18:50;;;;;;;3.81;1.29;;;3.00;99.90;;;7.53;63.75;101780.02;1671880;75;24513;-79
2021/01/14 03:21:08;;;;;;;6.92;1.46;;;3.00;99.90;;;7.49;63.78;101779.02;1688340;75;24464;-81
2021/01/14 03:23:26;;;;;;;5.45;1.66;;;3.00;99.90;;;7.43;63.68;101782.68;1685771;74;24445;-82
2021/01/14 03:25:45;;;;;;;5.38;1.70;;;3.00;99.90;;;7.40;63.57;101781.67;1693231;74;25012;-80
2021/01/14 03:28:02;;;;;;;6.87;1.74;;;2.90;99.90;;;7.38;63.87;101784.20;1683396;75;24495;-80
2021/01/14 03:30:25;;;;;;;4.13;1.52;;;2.90;99.90;;;7.36;64.04;101779.41;1674685;75;24464;-82
2021/01/14 03:32:43;;;;;;;6.43;1.79;;;2.80;99.90;;;7.30;64.21;101785.62;1686846;75;24465;-81
2021/01/14 03:35:00;;;;;;;5.65;1.59;;;2.70;99.90;;;7.28;64.50;101780.81;1686800;75;24411;-81
2021/01/14 03:37:19;;;;;;;5.37;1.71;;;2.70;99.90;;;7.24;64.60;101789.27;1687903;75;24574;-81
2021/01/14 03:39:38;;;;;;;7.27;1.62;;;2.60;99.90;;;7.22;64.41;101793.94;1691638;75;25285;-81
2021/01/14 03:41:58;;;;;;;5.38;1.81;;;2.50;99.90;;;7.17;64.72;101794.16;1687890;75;24656;-77
2021/01/14 03:44:21;;;;;;;7.83;1.66;;;2.50;99.90;;;7.19;64.94;101792.53;1688434;75;24444;-81
2021/01/14 03:46:38;;;;;;;4.70;1.90;;;2.40;99.90;;;7.23;64.54;101791.80;1686941;75;24630;-79
2021/01/14 03:48:58;;;;;;;6.75;1.57;;;2.40;99.90;;;7.18;64.75;101789.45;1691035;75;24526;-82
2021/01/14 03:51:32;;;;;;;5.97;1.71;;;2.30;99.90;;;7.21;64.63;101793.44;1690939;75;24476;-79
2021/01/14 03:53:50;;;;;;;6.44;1.60;;;2.30;99.90;;;7.18;64.60;101789.45;1685548;75;24496;-80
2021/01/14 03:56:10;;;;;;;7.28;1.62;;;2.30;99.90;;;7.14;64.80;101791.45;1687383;74;24570;-82
2021/01/14 03:58:29;;;;;;;5.73;1.49;;;2.30;99.90;;;7.00;64.94;101791.33;1695317;75;24954;-81
2021/01/14 04:00:47;;;;;;;4.40;1.38;;;2.30;99.90;;;7.00;65.24;101796.07;1692323;75;24496;-80
2021/01/14 04:03:05;;;;;;;5.50;1.73;;;2.20;99.90;;;6.95;65.53;101790.25;1690270;75;24299;-79
2021/01/14 04:05:22;;;;;;;4.16;1.40;;;2.20;99.90;;;6.94;66.25;101793.68;1689369;75;24504;-80
2021/01/14 04:07:41;;;;;;;4.02;1.36;;;2.20;99.90;;;7.00;66.52;101791.33;1686078;75;24890;-81
2021/01/14 04:09:58;;;;;;;4.74;1.45;;;2.20;99.90;;;6.97;66.92;101786.03;1693023;75;24461;-81
2021/01/14 04:12:17;;;;;;;5.64;1.55;;;2.10;99.90;;;6.99;67.16;101788.25;1689948;75;24457;-82
2021/01/14 04:14:35;;;;;;;4.83;1.51;;;2.10;99.90;;;6.88;67.46;101789.52;1695308;75;24448;-82
2021/01/14 04:16:55;;;;;;;8.53;1.75;;;2.10;99.90;;;6.92;67.65;101784.95;1692408;75;24437;-81
2021/01/14 04:19:17;;;;;;;4.09;1.58;;;2.10;99.90;;;6.88;68.19;101786.53;1686265;75;24963;-80
2021/01/14 04:21:41;;;;;;;4.55;1.56;;;2.00;99.90;;;6.87;68.16;101791.65;1688771;75;24439;-81
2021/01/14 04:23:58;;;;;;;3.84;1.50;;;2.00;99.90;;;6.92;68.55;101784.95;1693332;74;24619;-81
2021/01/14 04:26:24;;;;;;;3.95;1.44;;;2.00;99.90;;;6.97;68.70;101788.19;1688452;75;24907;-80
2021/01/14 04:28:44;;;;;;;7.33;1.75;;;2.00;99.90;;;6.97;68.54;101784.73;1688201;75;24887;-81
2021/01/14 04:31:03;;;;;;;8.00;1.57;;;2.00;99.90;;;7.03;68.99;101781.98;1691964;75;24436;-81
2021/01/14 04:33:20;;;;;;;4.59;1.72;;;2.00;99.90;;;7.02;68.84;101789.66;1687617;75;25001;-80
2021/01/14 04:35:38;;;;;;;7.72;2.00;;;2.10;99.90;;;7.02;68.65;101787.97;1686199;75;24508;-81
2021/01/14 04:37:56;;;;;;;4.89;1.78;;;2.10;99.90;;;7.02;68.00;101793.14;1698707;74;24886;-79
2021/01/14 04:40:21;;;;;;;3.93;1.44;;;2.10;99.90;;;7.06;67.59;101795.05;1688835;75;24429;-81
2021/01/14 04:42:49;;;;;;;3.52;1.35;;;2.20;99.90;;;7.04;67.25;101794.09;1682073;75;25223;-82
2021/01/14 04:45:12;;;;;;;4.85;1.60;;;2.20;99.90;;;7.06;67.39;101793.75;1694716;75;24444;-82
2021/01/14 04:47:34;;;;;;;5.03;1.38;;;2.20;99.90;;;7.05;67.42;101791.11;1689331;75;24450;-82
2021/01/14 04:49:52;;;;;;;5.17;1.47;;;2.20;99.90;;;7.01;67.19;101789.20;1684800;75;24918;-79
2021/01/14 04:52:19;;;;;;;4.83;1.56;;;2.20;99.90;;;6.91;67.28;101796.11;1694082;74;24457;-81
2021/01/14 04:54:41;;;;;;;4.61;1.60;;;2.10;99.90;;;6.89;67.07;101790.02;1683299;75;24448;-81
2021/01/14 04:57:18;;;;;;;6.62;1.51;;;2.00;99.90;;;6.83;67.18;101807.46;1684633;75;25411;-81
2021/01/14 04:59:40;;;;;;;5.67;1.45;;;2.00;99.90;;;6.77;67.63;101808.91;1695981;75;24484;-81
2021/01/14 05:02:02;;;;;;;7.56;1.47;;;2.00;99.90;;;6.70;67.59;101805.62;1682770;75;24450;-81
2021/01/14 05:04:22;;;;;;;10.72;1.85;;;1.90;99.90;;;6.64;68.17;101806.67;1695335;75;24534;-80
2021/01/14 05:06:45;;;;;;;6.13;1.42;;;1.90;99.90;;;6.59;68.14;101807.73;1686565;75;24984;-80
2021/01/14 05:09:08;;;;;;;5.85;1.68;;;1.80;99.90;;;6.67;68.40;101814.12;1695340;75;24472;-79
2021/01/14 05:11:28;;;;;;;7.10;1.54;;;1.80;99.90;;;6.75;68.42;101812.73;1695958;75;25131;-80
2021/01/14 05:13:49;;;;;;;3.70;1.33;;;1.80;99.90;;;6.76;68.82;101811.04;1687952;75;24503;-80
2021/01/14 05:16:07;;;;;;;5.60;1.48;;;1.80;99.90;;;6.81;68.29;101809.09;1682239;75;24433;-79
2021/01/14 05:18:27;;;;;;;5.35;1.44;;;1.80;99.90;;;6.82;68.34;101812.17;1691621;74;24834;-80
2021/01/14 05:20:48;;;;;;;6.21;1.84;;;1.80;99.90;;;6.79;68.49;101803.00;1686985;75;24885;-78
2021/01/14 05:23:10;;;;;;;4.93;1.44;;;1.80;99.90;;;6.83;68.46;101807.46;1685328;75;24505;-81
2021/01/14 05:25:27;;;;;;;4.01;1.35;;;1.80;99.90;;;6.87;68.51;101801.61;1691749;75;24488;-80
2021/01/14 05:27:45;;;;;;;4.52;1.50;;;1.90;99.90;;;6.90;68.39;101805.61;1685711;75;24435;-80
2021/01/14 05:30:17;;;;;;;3.76;1.42;;;1.90;99.90;;;6.84;68.06;101810.95;1699326;75;24968;-79
2021/01/14 05:32:41;;;;;;;5.46;1.40;;;1.90;99.90;;;6.86;68.43;101814.05;1688839;75;24458;-79
2021/01/14 05:34:58;;;;;;;5.95;1.50;;;1.90;99.90;;;6.91;68.40;101820.31;1686960;75;24440;-81
2021/01/14 05:37:17;;;;;;;5.40;1.37;;;1.90;99.90;;;6.98;68.99;101813.67;1688324;75;24466;-79
2021/01/14 05:39:43;;;;;;;4.33;1.60;;;2.00;99.90;;;7.00;68.96;101823.27;1692555;75;24903;-82
2021/01/14 05:42:10;;;;;;;7.69;1.68;;;2.00;99.90;;;7.03;68.82;101818.64;1681292;75;24524;-81
2021/01/14 05:44:42;;;;;;;3.69;2.08;;;2.00;99.90;;;7.00;68.82;101825.84;1688243;74;24450;-80
2021/01/14 05:46:59;;;;;;;6.17;1.55;;;2.00;99.90;;;6.94;69.15;101821.72;1687952;75;24504;-81
2021/01/14 05:49:17;;;;;;;3.73;1.76;;;2.00;99.90;;;6.97;69.41;101832.20;1687752;75;25039;-81
2021/01/14 05:51:35;;;;;;;5.92;1.66;;;2.00;99.90;;;7.02;69.10;101830.69;1694001;75;24421;-82
2021/01/14 05:54:02;;;;;;;5.44;1.44;;;2.00;99.90;;;6.99;69.42;101833.16;1696255;75;25071;-81
2021/01/14 05:56:30;;;;;;;5.28;1.75;;;1.90;99.90;;;7.00;69.44;101838.80;1689384;74;24521;-82
2021/01/14 05:58:52;;;;;;;5.73;1.51;;;1.90;99.90;;;6.97;69.25;101838.67;1683086;75;24481;-79
2021/01/14 06:01:16;;;;;;;5.16;1.41;;;1.90;99.90;;;6.92;69.37;101836.34;1695674;75;24421;-80
2021/01/14 06:03:33;;;;;;;2.29;1.55;;;1.90;99.90;;;6.81;68.72;101844.47;1694471;75;24440;-82
2021/01/14 06:05:56;;;;;;;3.73;1.43;;;1.90;99.90;;;6.85;69.40;101852.42;1696030;74;25178;-81
2021/01/14 06:08:25;;;;;;;3.71;1.72;;;1.90;99.90;;;6.93;69.64;101847.16;1690462;75;24447;-81
2021/01/14 06:10:43;;;;;;;6.20;1.56;;;1.90;99.90;;;6.85;69.34;101852.42;1690149;75;24408;-80
2021/01/14 06:13:03;;;;;;;9.18;1.70;;;1.90;99.90;;;6.90;69.93;101856.49;1695537;74;24409;-82
2021/01/14 06:15:21;;;;;;;6.51;1.38;;;2.00;99.90;;;6.91;70.00;101859.14;1688848;75;24500;-81
2021/01/14 06:17:40;;;;;;;4.68;1.53;;;2.00;99.90;;;6.90;69.77;101857.39;1698813;75;24956;-81
2021/01/14 06:20:09;;;;;;;5.61;1.60;;;2.00;99.90;;;6.91;69.73;101861.73;1686268;74;24505;-81
2021/01/14 06:22:30;;;;;;;4.56;1.49;;;2.00;99.90;;;6.85;69.86;101861.48;1698926;75;24939;-80
2021/01/14 06:24:50;;;;;;;6.25;1.71;;;2.00;99.90;;;6.88;70.44;101858.13;1689241;74;24536;-80
2021/01/14 06:27:17;;;;;;;4.84;1.58;;;2.00;99.90;;;6.95;70.05;101858.87;1690144;74;24469;-80
2021/01/14 06:29:38;;;;;;;5.71;1.76;;;2.00;99.90;;;6.88;70.53;101857.73;1690753;75;24459;-80
2021/01/14 06:32:10;;;;;;;6.37;1.67;;;2.00;99.90;;;6.91;70.54;101855.66;1690976;75;24885;-83
2021/01/14 06:34:29;;;;;;;5.98;1.84;;;2.00;99.90;;;6.90;70.65;101859.98;1684378;75;24470;-83
2021/01/14 06:36:50;;;;;;;5.43;2.27;;;2.00;99.90;;;6.87;70.70;101856.37;1692576;75;24446;-80
2021/01/14 06:39:18;;;;;;;5.74;1.73;;;2.00;99.90;;;6.85;71.24;101858.89;1696160;75;24467;-82
2021/01/14 06:41:38;;;;;;;4.14;1.55;;;2.00;99.90;;;6.86;71.05;101854.61;1691129;75;24898;-81
2021/01/14 06:43:56;;;;;;;3.98;1.32;;;2.00;99.90;;;6.88;71.62;101861.61;1684788;75;24655;-78
2021/01/14 06:46:21;;;;;;;6.31;1.59;;;2.00;99.90;;;6.90;71.31;101862.96;1688863;75;24555;-81
2021/01/14 06:48:42;;;;;;;7.32;1.69;;;2.10;99.90;;;6.90;71.42;101856.09;1693151;75;24428;-81
2021/01/14 06:51:03;;;;;;;5.55;1.57;;;2.00;99.90;;;6.93;71.88;101861.39;1688703;75;24514;-79
2021/01/14 06:53:26;;;;;;;7.27;1.63;;;2.00;99.90;;;6.98;71.78;101861.17;1687306;75;24930;-80
2021/01/14 06:55:44;;;;;;;4.80;1.57;;;2.00;99.90;;;6.99;71.37;101864.23;1685400;74;24591;-81
2021/01/14 06:58:15;;;;;;;5.70;1.50;;;2.00;99.90;;;6.96;71.62;101862.81;1678060;75;24422;-81
2021/01/14 07:00:35;;;;;;;2.26;1.26;;;2.10;99.90;;;6.94;71.03;101868.33;1686081;75;24442;-80
2021/01/14 07:03:20;;;;;;;5.01;1.83;;;2.00;99.90;;;6.99;71.27;101874.98;1689285;75;24531;-82
2021/01/14 07:05:42;;;;;;;4.50;1.42;;;2.10;99.90;;;7.05;71.67;101877.42;1692571;75;24498;-82
2021/01/14 07:08:39;;;;;;;4.54;1.58;;;2.00;99.90;;;6.99;71.00;101881.45;1692592;75;24576;-81
2021/01/14 07:11:14;;;;;;;6.45;1.65;;;2.00;99.90;;;6.95;71.26;101881.77;1682753;75;24451;-81
2021/01/14 07:13:37;;;;;;;5.08;1.69;;;2.00;99.90;;;6.94;71.47;101888.17;1689507;74;24426;-81
2021/01/14 07:16:00;;;;;;;6.28;1.54;;;2.00;99.90;;;6.97;71.64;101889.59;1683026;75;25480;-81
2021/01/14 07:18:35;;;;;;;3.90;1.49;;;2.00;99.90;;;6.94;71.43;101892.92;1681071;75;24410;-80
2021/01/14 07:21:01;;;;;;;5.72;1.69;;;2.00;99.90;;;6.90;71.25;101888.45;1700464;74;24424;-80
2021/01/14 07:23:21;;;;;;;5.40;1.57;;;2.00;99.90;;;6.94;71.26;101892.92;1688359;73;24462;-80
2021/01/14 07:25:44;;;;;;;5.66;1.51;;;2.00;99.90;;;6.94;71.53;101899.39;1683882;74;24447;-83
2021/01/14 07:28:02;;;;;;;4.92;1.61;;;2.00;99.90;;;7.00;71.62;101900.94;1681347;74;24513;-76
2021/01/14 07:30:27;;;;;;;6.78;1.91;;;2.00;99.90;;;7.01;71.20;101900.53;1675490;75;24970;-81
2021/01/14 07:33:04;;;;;;;7.66;2.02;;;2.00;99.90;;;7.04;71.44;101909.72;1689581;73;25010;-82
2021/01/14 07:35:45;;;;;;;3.95;1.63;;;2.00;99.90;;;7.06;71.31;101911.98;1693170;75;24503;-82
2021/01/14 07:38:10;;;;;;;6.22;1.74;;;2.00;99.90;;;7.16;71.95;101918.88;1695739;75;24483;-82
2021/01/14 07:40:46;;;;;;;5.09;1.94;;;2.00;99.90;;;7.15;72.08;101921.02;1668407;76;24636;-81
2021/01/14 07:43:06;;;;;;;5.99;2.21;;;2.00;99.90;;;7.25;71.67;101923.17;1692645;73;25595;-80
2021/01/14 07:45:26;;;;;;;8.15;2.10;;;2.00;99.90;;;7.13;71.19;101924.34;1685353;74;24443;-81
2021/01/14 07:47:48;;;;;;;4.75;1.79;;;2.00;99.90;;;6.98;71.18;101930.19;1687770;75;24732;-81
2021/01/14 07:50:26;;;;;;;6.97;2.63;;;2.00;99.90;;;6.95;71.27;101930.06;1686790;75;24460;-81
2021/01/14 07:52:46;;;;;;;6.11;2.20;;;2.00;99.90;;;6.89;71.40;101930.67;1687076;75;24937;-83
2021/01/14 07:55:11;;;;;;;5.21;2.16;;;2.00;99.90;;;6.96;71.62;101928.83;1685337;75;24505;-83
2021/01/14 07:57:33;;;;;;;7.61;2.26;;;2.00;99.90;;;6.97;72.78;101935.77;1688229;75;24933;-84
2021/01/14 07:59:53;;;;;;;7.66;3.13;;;2.00;99.90;;;7.04;72.76;101934.33;1684833;75;24612;-84
2021/01/14 08:02:15;;;;;;;6.11;2.32;;;2.00;99.90;;;7.09;72.12;101944.07;1679790;75;24540;-82
2021/01/14 08:04:35;;;;;;;6.10;1.91;;;2.00;99.90;;;6.96;71.96;101939.59;1686339;75;25293;-82
2021/01/14 08:06:55;;;;;;;5.26;2.08;;;2.00;99.90;;;6.91;71.85;101945.87;1690406;75;24555;-82
2021/01/14 08:09:13;;;;;;;5.61;1.86;;;2.00;99.90;;;6.98;72.62;101943.14;1690408;74;24556;-83
2021/01/14 08:11:33;;;;;;;6.27;1.96;;;2.00;99.90;;;6.94;72.15;101942.11;1685113;75;24569;-84
2021/01/14 08:14:42;;;;;;;7.05;1.81;;;2.00;99.90;;;6.92;72.59;101951.55;1685603;73;25072;-81
2021/01/14 08:17:22;;;;;;;5.02;1.81;;;2.00;99.90;;;6.94;72.57;101955.06;1691463;75;24498;-82
2021/01/14 08:19:43;;;;;;;6.26;1.79;;;2.00;99.90;;;6.97;72.80;101950.44;1688635;75;24540;-82
2021/01/14 08:22:13;;;;;;;8.10;2.29;;;2.00;99.90;;;6.97;72.94;101956.48;1689006;75;24665;-81
2021/01/14 08:24:50;;;;;;;4.75;1.83;;;2.00;99.90;;;7.01;72.82;101963.58;1688577;74;24527;-83
2021/01/14 08:27:13;;;;;;;6.42;2.21;;;2.10;99.90;;;7.07;72.91;101966.42;1682881;75;24466;-81
2021/01/14 08:30:14;;;;;;;5.75;2.00;;;2.10;99.90;;;7.15;73.00;101958.56;1679841;75;24504;-79
2021/01/14 08:32:52;;;;;;;5.39;1.85;;;2.20;99.90;;;7.25;72.81;101965.91;1684806;75;24475;-78
2021/01/14 08:35:27;;;;;;;6.78;1.99;;;2.20;99.90;;;7.31;72.52;101968.75;1689909;75;24723;-79
2021/01/14 08:37:49;;;;;;;7.54;2.42;;;2.30;99.90;;;7.25;72.48;101971.09;1683661;75;24524;-79
2021/01/14 08:40:12;;;;;;;4.55;1.82;;;2.30;99.90;;;7.24;72.98;101971.89;1669645;75;24658;-78
2021/01/14 08:42:38;;;;;;;6.68;2.15;;;2.40;99.90;;;7.20;72.96;101974.30;1678818;75;24492;-78
2021/01/14 08:44:58;;;;;;;6.86;2.53;;;2.40;99.90;;;7.08;73.22;101979.83;1685094;75;25029;-78
2021/01/14 08:47:25;;;;;;;5.11;1.96;;;2.50;99.90;;;7.09;73.20;101977.73;1688825;75;24592;-79
2021/01/14 08:49:47;;;;;;;6.70;2.13;;;2.50;99.90;;;7.04;73.59;101987.41;1682927;75;24948;-78
2021/01/14 08:52:17;;;;;;;8.81;2.45;;;2.50;99.90;;;7.08;74.08;101990.63;1695791;75;24485;-79
2021/01/14 08:54:42;;;;;;;6.14;2.01;;;2.50;99.90;;;7.21;73.71;101992.48;1681996;75;24509;-79
2021/01/14 08:57:08;;;;;;;7.20;2.00;;;2.60;99.90;;;7.21;73.48;101989.90;1688875;75;24567;-80
2021/01/14 08:59:26;;;;;;;5.09;2.02;;;2.60;99.90;;;7.24;73.88;101991.31;1694009;75;25155;-78
2021/01/14 09:01:43;;;;;;;7.35;1.94;;;2.70;99.90;;;7.24;73.79;101995.20;1690872;75;24528;-77
2021/01/14 09:04:06;;;;;;;5.84;1.97;;;2.70;99.90;;;7.27;73.61;101995.33;1685678;75;24664;-79
2021/01/14 09:06:33;;;;;;;4.98;1.75;;;2.70;99.90;;;7.23;73.58;101997.73;1684901;75;24578;-80
2021/01/14 09:08:59;;;;;;;5.04;1.78;;;2.80;99.90;;;7.21;73.60;101996.37;1684940;75;24931;-80
2021/01/14 09:11:33;;;;;;;5.62;1.91;;;2.80;99.90;;;7.11;73.37;101997.22;1687645;75;24523;-79
2021/01/14 09:13:55;;;;;;;5.87;2.10;;;2.80;99.90;;;7.15;73.05;101997.42;1693194;75;25037;-78
2021/01/14 09:16:16;;;;;;;5.50;2.10;;;2.90;99.90;;;7.15;74.00;102001.30;1691957;75;25226;-78
2021/01/14 09:18:35;;;;;;;6.23;2.15;;;2.90;99.90;;;7.24;74.06;102000.38;1680284;75;25031;-78
2021/01/14 09:20:56;;;;;;;8.60;2.17;;;2.90;99.90;;;7.15;74.98;102000.41;1684554;75;24474;-80
2021/01/14 09:23:34;;;;;;;7.35;2.19;;;2.90;99.90;;;7.16;74.97;102009.53;1687009;75;24452;-79
2021/01/14 09:25:56;;;;;;;5.60;2.13;;;2.90;99.90;;;7.22;75.42;102009.78;1681587;75;24448;-77
2021/01/14 09:28:15;;;;;;;5.90;2.22;;;2.90;99.90;;;7.40;75.18;102010.57;1695754;75;24512;-79
2021/01/14 09:30:36;;;;;;;5.11;2.20;;;2.90;99.90;;;7.27;73.75;102006.13;1675202;75;24518;-80
2021/01/14 09:33:01;;;;;;;4.18;2.04;;;3.00;99.90;;;7.21;74.27;102001.95;1679278;75;24551;-79
2021/01/14 09:35:23;;;;;;;3.99;2.03;;;3.00;99.90;;;7.24;74.13;102007.30;1683646;75;24492;-79
2021/01/14 09:37:43;;;;;;;5.35;2.10;;;3.00;99.90;;;7.18;75.05;102013.08;1690636;75;24485;-80
2021/01/14 09:40:10;;;;;;;7.74;2.31;;;3.10;99.90;;;7.33;75.27;102014.15;1694877;75;24487;-80
2021/01/14 09:42:34;;;;;;;5.47;2.23;;;3.10;99.90;;;7.28;74.37;102002.30;1681932;73;25026;-80
2021/01/14 09:44:57;;;;;;;4.76;2.44;;;3.20;99.90;;;7.34;73.50;101996.47;1696083;73;24522;-80
2021/01/14 09:47:18;;;;;;;8.22;3.05;;;3.20;99.90;;;7.36;74.27;102000.02;1690928;75;24493;-80
2021/01/14 09:49:39;;;;;;;7.10;2.26;;;3.20;99.90;;;7.36;72.88;101999.63;1687307;75;24504;-81
2021/01/14 09:51:59;;;;;;;7.91;2.76;;;3.30;99.90;;;7.38;74.54;102005.73;1679595;75;24959;-78
2021/01/14 09:54:19;;;;;;;4.18;2.37;;;3.40;99.90;;;7.45;74.35;102006.87;1687038;75;24451;-81
2021/01/14 09:56:40;;;;;;;7.64;3.05;;;3.40;99.90;;;7.27;74.78;102010.88;1687867;75;24961;-80
2021/01/14 09:59:02;;;;;;;6.68;2.88;;;3.50;99.90;;;7.34;74.63;102002.55;1689087;73;24462;-78
2021/01/14 10:01:24;;;;;;;7.64;2.97;;;3.50;99.90;;;7.39;74.68;102001.05;1708115;75;24516;-79
2021/01/14 10:05:52;;;;;;;7.57;2.81;;;3.50;99.90;;;7.47;74.84;101999.66;1740251;72;33064;-81
2021/01/14 10:08:18;;;;;;;9.59;3.08;;;3.60;99.90;;;7.51;74.65;101996.35;1721718;73;24602;-78
2021/01/14 10:10:35;;;;;;;6.93;2.96;;;3.60;99.90;;;7.42;73.99;101998.98;1718966;73;24937;-80